TULLOCH (TUL)

Elevation: 515' · STANISLAUS R basin · Operator: US Bureau of Reclamation

Provisional data, subject to change.
Query executed Monday at 8:06:49   clock

Select a sensor type for a plot of data.
Note: Reservoir Flows are daily averages.

Earlier

Date RES ELE    STORAGE    RES CHG    TOC STO    ABV TOC    OUTFLOW    INFLOW    EVAP    RIV REL    SPILL    DIS PWR   
 FEET   AF   AF   AF   AF   CFS   CFS   CFS   CFS   CFS   CFS  
12/27/2014 500.19 55509 473 57000 -1491 233 472 1 0 0 233
12/28/2014 500.29 55617 108 57000 -1383 226 281 1 0 0 226
12/29/2014 500.55 55899 282 57000 -1101 475 620 3 236 0 239
12/30/2014 500.99 56376 477 57000 -624 238 479 1 0 0 238
12/31/2014 500.70 56062 -314 -- -- 238 82 2 0 0 238
01/01/2015 500.33 55661 -401 57000 -1339 239 40 3 0 0 239
01/02/2015 500.16 55476 -185 57000 -1524 240 149 2 0 0 240
01/03/2015 500.38 55715 239 57000 -1285 240 361 1 0 0 240
01/04/2015 499.94 55239 -476 57000 -1761 240 2 2 0 0 240
01/05/2015 500.87 56246 1007 57000 -754 232 742 2 0 0 232
01/06/2015 500.62 55975 -271 57000 -1025 231 95 1 0 0 231
01/07/2015 500.13 55444 -531 57000 -1556 274 9 3 0 0 274
01/08/2015 499.58 54855 -589 57000 -2145 340 44 1 0 0 340
01/09/2015 500.34 55672 817 57000 -1328 340 754 2 0 0 340
01/10/2015 501.14 56541 869 57000 -459 346 786 2 0 0 346
01/11/2015 500.63 55986 -555 57000 -1014 352 76 4 0 0 352
01/12/2015 500.69 56051 65 57000 -949 360 393 0 0 0 360
01/13/2015 501.18 56586 535 57000 -414 415 687 2 0 0 415
01/14/2015 501.47 56905 319 57000 -95 542 704 1 0 0 542
01/15/2015 501.49 56927 22 57000 -73 320 331 0 0 0 320
01/16/2015 500.98 56365 -562 57000 -635 326 47 4 0 0 326
01/17/2015 500.44 55780 -585 57000 -1220 326 33 2 0 0 326
01/18/2015 499.94 55239 -541 57000 -1761 335 63 1 0 0 335
01/19/2015 500.57 55921 682 57000 -1079 345 691 2 0 0 345
01/20/2015 501.15 56552 631 57000 -448 348 667 1 0 0 348
01/21/2015 501.21 56619 67 57000 -381 347 382 1 0 0 347
01/22/2015 501.15 56552 -67 57000 -448 260 229 3 0 0 260
01/23/2015 500.76 56127 -425 57000 -873 251 39 2 0 0 251
01/24/2015 500.34 55672 -455 57000 -1328 252 25 2 0 0 252
01/25/2015 500.12 55433 -239 57000 -1567 262 145 3 0 0 262
01/26/2015 -- -- -- -- -- -- -- -- -- -- --

Later | Latest

Warning! This data is preliminary and subject to revision.

Show TUL Map | Plot TUL Data | 1 Month TUL Data | Real-Time TUL Data | TUL Info